Terminal Aerodrome Forecast
Issued by NWS Pocatello, ID

Home | Current Version | Previous Version | Text Only | Print | Product List | Glossary On
Versions: 1 2 3 4 5 6 7 8 9 10 11 12 13 14 15 16 17 18
000
FTUS45 KPIH 050151 AAB
TAFPIH
TAF AMD
KPIH 050151Z 0502/0524 22015G25KT P6SM VCTS BKN080CB
      TEMPO 0502/0503 20030G40KT 6SM BLDU
     FM050500 19007KT P6SM SCT100 BKN150
     FM051500 19008KT P6SM VCSH SCT080 BKN150
     FM051900 27012G20KT P6SM VCTS SCT080 BKN150CB=

USA.gov is the U.S. government's official web portal to all federal, state and local government web resources and services.